createdAt,value
2023-01-10T00:01:47.486Z,3.83
2023-01-10T00:04:35.666Z,2.90
2023-01-10T00:07:15.559Z,3.20
2023-01-10T00:10:02.502Z,3.42
2023-01-10T00:13:01.501Z,2.85
2023-01-10T00:15:48.522Z,3.47
2023-01-10T00:18:28.668Z,3.50
2023-01-10T00:21:16.495Z,2.85
2023-01-10T00:23:59.483Z,3.15
2023-01-10T00:26:47.435Z,2.78
2023-01-10T00:29:35.463Z,3.53
2023-01-10T00:32:15.378Z,3.97
2023-01-10T00:35:07.258Z,3.97
2023-01-10T00:37:47.417Z,4.10
2023-01-10T00:40:34.575Z,3.63
2023-01-10T00:43:34.432Z,4.07
2023-01-10T00:46:21.547Z,3.53
2023-01-10T00:49:01.464Z,3.15
2023-01-10T00:51:48.653Z,3.60
2023-01-10T00:54:28.393Z,3.13
2023-01-10T00:57:15.514Z,4.13
2023-01-10T00:59:55.385Z,3.10
2023-01-10T01:02:42.552Z,3.60
2023-01-10T01:05:22.332Z,4.13
2023-01-10T01:08:11.007Z,3.20
2023-01-10T01:10:50.496Z,4.13
2023-01-10T01:13:37.529Z,4.05
2023-01-10T01:16:17.425Z,3.85
2023-01-10T01:19:04.430Z,3.97
2023-01-10T01:21:44.312Z,3.92
2023-01-10T01:24:31.534Z,4.05
2023-01-10T01:27:25.265Z,3.63
2023-01-10T01:30:12.724Z,4.10
2023-01-10T01:32:52.370Z,5.20
2023-01-10T01:35:39.537Z,4.35
2023-01-10T01:38:19.482Z,3.67
2023-01-10T01:41:26.404Z,4.22
2023-01-10T01:44:11.269Z,4.28
2023-01-10T01:47:07.567Z,4.10
2023-01-10T01:49:49.258Z,5.00
2023-01-10T01:52:40.416Z,5.90
2023-01-10T01:55:20.434Z,5.35
2023-01-10T01:58:08.401Z,4.85
2023-01-10T02:00:48.247Z,4.93
2023-01-10T02:03:35.542Z,4.82
2023-01-10T02:06:15.241Z,4.75
2023-01-10T02:09:22.306Z,4.75
2023-01-10T02:12:02.329Z,3.78
2023-01-10T02:14:50.440Z,3.90
2023-01-10T02:17:30.490Z,5.05
2023-01-10T02:20:18.508Z,4.93
2023-01-10T02:22:58.223Z,4.38
2023-01-10T02:25:45.634Z,4.65
2023-01-10T02:28:50.257Z,4.60
2023-01-10T02:31:39.580Z,4.13
2023-01-10T02:34:41.442Z,4.70
2023-01-10T02:37:26.704Z,3.47
2023-01-10T02:40:29.457Z,3.95
2023-01-10T02:43:22.492Z,4.65
2023-01-10T02:46:22.249Z,3.97
2023-01-10T02:49:02.482Z,4.43
2023-01-10T02:51:49.210Z,4.53
2023-01-10T02:54:34.476Z,4.18
2023-01-10T02:57:27.174Z,3.60
2023-01-10T03:00:22.476Z,4.63
2023-01-10T03:03:21.288Z,4.18
2023-01-10T03:06:13.316Z,3.92
2023-01-10T03:09:06.171Z,5.10
2023-01-10T03:11:47.330Z,5.90
2023-01-10T03:14:35.198Z,3.97
2023-01-10T03:17:17.290Z,3.95
2023-01-10T03:20:07.269Z,4.38
2023-01-10T03:22:48.250Z,3.08
2023-01-10T03:25:39.281Z,3.42
2023-01-10T03:28:35.252Z,3.65
2023-01-10T03:31:25.188Z,3.97
2023-01-10T03:34:05.275Z,4.80
2023-01-10T03:36:52.194Z,5.15
2023-01-10T03:39:46.422Z,3.45
2023-01-10T03:43:10.180Z,4.43
2023-01-10T03:45:54.193Z,3.92
2023-01-10T03:48:43.139Z,4.10
2023-01-10T03:51:24.227Z,4.13
2023-01-10T03:54:11.105Z,3.63
2023-01-10T03:56:54.166Z,3.40
2023-01-10T03:59:41.226Z,3.55
2023-01-10T04:02:21.178Z,3.80
2023-01-10T04:05:08.128Z,4.25
2023-01-10T04:07:49.242Z,3.55
2023-01-10T04:10:36.202Z,3.75
2023-01-10T04:13:16.431Z,3.15
2023-01-10T04:16:03.074Z,3.90
2023-01-10T04:18:43.284Z,5.93
2023-01-10T04:21:30.136Z,3.35
2023-01-10T04:24:10.327Z,3.90
2023-01-10T04:26:57.059Z,4.03
2023-01-10T04:29:44.321Z,5.03
2023-01-10T04:32:24.127Z,3.80
2023-01-10T04:35:11.301Z,4.10
2023-01-10T04:37:51.116Z,4.65
2023-01-10T04:40:38.491Z,3.60
2023-01-10T04:43:18.080Z,3.75
2023-01-10T04:46:05.335Z,3.20
2023-01-10T04:48:45.063Z,5.35
2023-01-10T04:51:32.277Z,4.18
2023-01-10T04:54:12.111Z,4.97
2023-01-10T04:56:59.242Z,5.85
2023-01-10T04:59:39.069Z,3.25
2023-01-10T05:02:26.214Z,5.10
2023-01-10T05:05:06.084Z,3.80
2023-01-10T05:07:53.364Z,3.50
2023-01-10T05:10:33.044Z,4.35
2023-01-10T05:13:20.284Z,3.45
2023-01-10T05:16:03.072Z,3.15
2023-01-10T05:18:50.864Z,3.58
2023-01-10T05:21:31.020Z,3.40
2023-01-10T05:24:18.128Z,3.22
2023-01-10T05:26:57.954Z,3.83
2023-01-10T05:29:51.981Z,3.88
2023-01-10T05:32:39.104Z,3.83
2023-01-10T05:35:19.258Z,3.58
2023-01-10T05:38:06.032Z,4.13
2023-01-10T05:40:46.155Z,3.53
2023-01-10T05:43:33.129Z,3.22
2023-01-10T05:46:13.136Z,3.45
2023-01-10T05:48:59.948Z,3.58
2023-01-10T05:51:40.252Z,3.67
2023-01-10T05:54:27.095Z,3.90
2023-01-10T05:57:07.179Z,4.47
2023-01-10T05:59:54.030Z,3.13
2023-01-10T06:02:34.187Z,3.90
2023-01-10T06:05:20.938Z,3.92
2023-01-10T06:08:01.194Z,4.00
2023-01-10T06:10:47.944Z,3.63
2023-01-10T06:13:28.210Z,3.58
2023-01-10T06:16:15.013Z,3.55
2023-01-10T06:18:55.072Z,4.35
2023-01-10T06:21:41.977Z,3.50
2023-01-10T06:24:22.309Z,3.70
2023-01-10T06:27:08.999Z,3.22
2023-01-10T06:29:57.024Z,3.42
2023-01-10T06:32:37.049Z,3.95
2023-01-10T06:35:24.104Z,4.65
2023-01-10T06:38:03.922Z,3.75
2023-01-10T06:40:51.103Z,3.55
2023-01-10T06:43:30.908Z,3.22
2023-01-10T06:46:18.412Z,3.03
2023-01-10T06:48:57.908Z,3.63
2023-01-10T06:51:45.162Z,3.88
2023-01-10T06:54:24.947Z,4.03
2023-01-10T06:57:11.912Z,3.92
2023-01-10T06:59:51.875Z,3.50
2023-01-10T07:02:39.176Z,4.72
2023-01-10T07:05:20.856Z,4.30
2023-01-10T07:08:07.961Z,3.33
2023-01-10T07:10:47.954Z,3.85
2023-01-10T07:13:35.087Z,3.03
2023-01-10T07:16:17.136Z,4.22
2023-01-10T07:19:03.989Z,3.97
2023-01-10T07:21:43.904Z,3.47
2023-01-10T07:24:30.952Z,3.75
2023-01-10T07:27:10.896Z,3.15
2023-01-10T07:29:58.020Z,4.38
2023-01-10T07:32:37.908Z,4.15
2023-01-10T07:35:24.967Z,3.67
2023-01-10T07:38:05.896Z,5.47
2023-01-10T07:40:53.136Z,3.33
2023-01-10T07:43:32.844Z,4.22
2023-01-10T07:46:20.419Z,4.00
2023-01-10T07:48:59.790Z,3.80
2023-01-10T07:51:46.932Z,3.47
2023-01-10T07:54:26.881Z,4.32
2023-01-10T07:57:14.526Z,4.35
2023-01-10T07:59:54.917Z,3.45
2023-01-10T08:02:42.112Z,3.97
2023-01-10T08:05:21.919Z,4.35
2023-01-10T08:08:10.877Z,3.78
2023-01-10T08:10:50.929Z,3.47
2023-01-10T08:13:37.874Z,2.95
2023-01-10T08:16:18.006Z,4.68
2023-01-10T08:19:05.200Z,3.72
2023-01-10T08:21:44.917Z,2.83
2023-01-10T08:24:31.998Z,3.83
2023-01-10T08:27:12.878Z,3.55
2023-01-10T08:30:00.000Z,4.68
2023-01-10T08:32:39.837Z,3.55
2023-01-10T08:35:26.872Z,4.20
2023-01-10T08:38:06.847Z,3.78
2023-01-10T08:40:53.981Z,4.60
2023-01-10T08:43:33.790Z,3.95
2023-01-10T08:46:21.327Z,3.65
2023-01-10T08:49:00.809Z,4.20
2023-01-10T08:51:47.976Z,3.72
2023-01-10T08:54:27.760Z,5.05
2023-01-10T08:57:15.033Z,4.35
2023-01-10T08:59:54.788Z,4.07
2023-01-10T09:02:41.932Z,5.18
2023-01-10T09:05:27.394Z,4.60
2023-01-10T09:08:15.059Z,4.13
2023-01-10T09:10:54.778Z,3.88
2023-01-10T09:13:42.559Z,4.00
2023-01-10T09:16:23.815Z,3.67
2023-01-10T09:19:10.964Z,4.85
2023-01-10T09:21:50.788Z,3.38
2023-01-10T09:24:39.324Z,4.40
2023-01-10T09:27:19.065Z,4.40
2023-01-10T09:30:06.256Z,3.50
2023-01-10T09:32:45.716Z,3.70
2023-01-10T09:35:32.789Z,5.43
2023-01-10T09:38:13.780Z,6.13
2023-01-10T09:41:11.720Z,3.88
2023-01-10T09:44:07.769Z,4.43
2023-01-10T09:46:58.214Z,4.32
2023-01-10T09:49:53.713Z,4.10
2023-01-10T09:52:36.734Z,3.70
2023-01-10T09:55:25.788Z,4.03
2023-01-10T09:58:06.887Z,3.65
2023-01-10T10:00:57.892Z,3.75
2023-01-10T10:03:47.876Z,4.38
2023-01-10T10:06:34.746Z,3.80
2023-01-10T10:09:17.796Z,4.18
2023-01-10T10:12:12.694Z,3.25
2023-01-10T10:14:56.752Z,3.28
2023-01-10T10:17:48.659Z,3.47
2023-01-10T10:20:41.801Z,3.30
2023-01-10T10:23:28.759Z,3.30
2023-01-10T10:26:15.796Z,4.05
2023-01-10T10:29:18.820Z,3.47
2023-01-10T10:32:18.837Z,4.22
2023-01-10T10:35:07.852Z,4.68
2023-01-10T10:37:58.802Z,4.78
2023-01-10T10:40:44.768Z,3.35
2023-01-10T10:43:32.885Z,3.55
2023-01-10T10:46:19.702Z,3.60
2023-01-10T10:49:07.772Z,4.40
2023-01-10T10:52:00.601Z,3.00
2023-01-10T10:54:48.789Z,3.10
2023-01-10T10:57:30.904Z,3.42
2023-01-10T11:00:22.350Z,3.60
2023-01-10T11:03:30.567Z,3.13
2023-01-10T11:06:19.385Z,3.30
2023-01-10T11:09:02.542Z,3.90
2023-01-10T11:11:54.510Z,4.03
2023-01-10T11:14:54.730Z,3.63
2023-01-10T11:17:41.875Z,3.85
2023-01-10T11:20:22.658Z,3.78
2023-01-10T11:23:09.709Z,4.20
2023-01-10T11:25:53.576Z,3.85
2023-01-10T11:28:47.707Z,3.40
2023-01-10T11:31:35.587Z,4.35
2023-01-10T11:34:25.698Z,3.58
2023-01-10T11:37:24.651Z,4.53
2023-01-10T11:40:24.324Z,3.58
2023-01-10T11:43:29.574Z,4.45
2023-01-10T11:46:11.734Z,4.40
2023-01-10T11:49:08.368Z,3.28
2023-01-10T11:51:58.838Z,4.00
2023-01-10T11:54:47.546Z,3.00
2023-01-10T11:57:32.615Z,4.13
2023-01-10T12:00:19.557Z,3.40
2023-01-10T12:02:59.573Z,3.15
2023-01-10T12:05:46.522Z,4.18
2023-01-10T12:08:33.669Z,4.13
2023-01-10T12:11:20.578Z,3.50
2023-01-10T12:14:04.995Z,3.60
2023-01-10T12:16:51.548Z,4.03
2023-01-10T12:19:31.739Z,4.32
2023-01-10T12:22:20.559Z,3.33
2023-01-10T12:25:00.715Z,3.47
2023-01-10T12:27:49.446Z,3.53
2023-01-10T12:30:36.737Z,3.47
2023-01-10T12:33:21.517Z,3.22
2023-01-10T12:36:11.723Z,3.58
2023-01-10T12:39:13.527Z,3.58
2023-01-10T12:42:30.223Z,3.50
2023-01-10T12:45:22.487Z,4.18
2023-01-10T12:48:11.688Z,3.58
2023-01-10T12:50:55.562Z,3.88
2023-01-10T12:53:46.726Z,3.47
2023-01-10T12:56:26.456Z,3.97
2023-01-10T12:59:39.243Z,3.50
2023-01-10T13:02:30.575Z,3.53
2023-01-10T13:05:22.716Z,4.90
2023-01-10T13:08:06.446Z,3.28
2023-01-10T13:10:55.682Z,3.35
2023-01-10T13:13:42.419Z,3.08
2023-01-10T13:17:04.829Z,3.28
2023-01-10T13:19:44.404Z,3.13
2023-01-10T13:22:31.542Z,3.47
2023-01-10T13:25:14.766Z,3.78
2023-01-10T13:28:10.368Z,3.03
2023-01-10T13:31:00.501Z,2.22
2023-01-10T13:33:57.597Z,3.72
2023-01-10T13:36:45.409Z,2.75
2023-01-10T13:39:57.967Z,4.05
2023-01-10T13:43:02.512Z,3.72
2023-01-10T13:45:43.460Z,2.58
2023-01-10T13:48:32.429Z,2.40
2023-01-10T13:51:13.699Z,2.90
2023-01-10T13:54:03.440Z,2.38
2023-01-10T13:56:44.585Z,2.63
2023-01-10T13:59:52.417Z,2.30
2023-01-10T14:02:33.787Z,4.30
2023-01-10T14:05:25.497Z,3.15
2023-01-10T14:08:05.563Z,2.70
2023-01-10T14:10:52.495Z,2.92
2023-01-10T14:13:32.581Z,2.72
2023-01-10T14:16:37.418Z,2.40
2023-01-10T14:19:36.516Z,2.30
2023-01-10T14:22:31.345Z,2.75
2023-01-10T14:25:13.614Z,2.17
2023-01-10T14:28:01.397Z,1.92
2023-01-10T14:30:48.619Z,2.30
2023-01-10T14:33:28.390Z,2.40
2023-01-10T14:36:27.669Z,2.15
2023-01-10T14:39:08.345Z,1.83
2023-01-10T14:41:59.975Z,2.20
2023-01-10T14:45:11.326Z,2.30
2023-01-10T14:47:58.623Z,2.20
2023-01-10T14:50:39.388Z,1.80
2023-01-10T14:53:36.596Z,1.83
2023-01-10T14:56:26.436Z,2.30
2023-01-10T14:59:23.466Z,1.95
2023-01-10T15:02:04.359Z,2.85
2023-01-10T15:05:01.620Z,3.88
2023-01-10T15:07:41.593Z,2.10
2023-01-10T15:10:37.425Z,3.17
2023-01-10T15:13:20.357Z,2.17
2023-01-10T15:16:08.103Z,2.08
2023-01-10T15:18:50.588Z,2.45
2023-01-10T15:21:37.449Z,2.65
2023-01-10T15:24:29.492Z,2.95
2023-01-10T15:27:21.575Z,2.30
2023-01-10T15:30:08.327Z,2.65
2023-01-10T15:32:48.656Z,3.17
2023-01-10T15:35:37.137Z,2.45
2023-01-10T15:38:22.421Z,2.72
2023-01-10T15:41:10.453Z,2.83
2023-01-10T15:43:52.173Z,2.53
2023-01-10T15:46:41.328Z,3.17
2023-01-10T15:49:30.569Z,2.75
2023-01-10T15:52:27.269Z,2.97
2023-01-10T15:55:07.493Z,2.70
2023-01-10T15:57:58.386Z,3.85
2023-01-10T16:00:38.406Z,3.20
2023-01-10T16:03:40.297Z,3.65
2023-01-10T16:06:30.568Z,3.83
2023-01-10T16:09:25.183Z,3.47
2023-01-10T16:12:24.210Z,3.65
2023-01-10T16:15:20.247Z,3.63
2023-01-10T16:18:00.473Z,3.78
2023-01-10T16:20:48.211Z,4.18
2023-01-10T16:23:30.830Z,3.80
2023-01-10T16:26:17.251Z,4.15
2023-01-10T16:29:19.345Z,4.65
2023-01-10T16:32:06.168Z,4.70
2023-01-10T16:34:46.375Z,4.85
2023-01-10T16:37:33.179Z,5.18
2023-01-10T16:40:26.752Z,4.85
2023-01-10T16:43:25.290Z,5.80
2023-01-10T16:46:05.458Z,4.75
2023-01-10T16:48:54.124Z,5.55
2023-01-10T16:51:35.415Z,5.32
2023-01-10T16:54:23.472Z,4.10
2023-01-10T16:57:03.323Z,5.38
2023-01-10T16:59:50.211Z,4.95
2023-01-10T17:02:30.366Z,8.80
2023-01-10T17:05:18.228Z,5.90
2023-01-10T17:07:58.289Z,5.65
2023-01-10T17:10:45.123Z,5.03
2023-01-10T17:13:28.191Z,4.90
2023-01-10T17:16:15.694Z,5.57
2023-01-10T17:18:56.281Z,5.40
2023-01-10T17:21:43.164Z,5.82
2023-01-10T17:24:23.411Z,5.28
2023-01-10T17:27:10.045Z,6.00
2023-01-10T17:30:04.134Z,6.05
2023-01-10T17:32:51.246Z,5.85
2023-01-10T17:35:32.531Z,6.30
2023-01-10T17:38:20.127Z,5.93
2023-01-10T17:41:03.216Z,5.97
2023-01-10T17:43:50.270Z,6.47
2023-01-10T17:46:30.136Z,6.50
2023-01-10T17:49:24.123Z,6.03
2023-01-10T17:52:11.271Z,6.07
2023-01-10T17:54:51.574Z,5.88
2023-01-10T17:57:39.413Z,6.32
2023-01-10T18:00:19.071Z,7.18
2023-01-10T18:03:06.259Z,6.05
2023-01-10T18:05:46.053Z,5.90
2023-01-10T18:08:33.234Z,5.47
2023-01-10T18:11:13.072Z,5.72
2023-01-10T18:14:00.138Z,5.10
2023-01-10T18:16:41.130Z,5.97
2023-01-10T18:19:29.916Z,5.20
2023-01-10T18:22:34.077Z,5.53
2023-01-10T18:25:21.400Z,6.60
2023-01-10T18:28:02.062Z,5.53
2023-01-10T18:30:56.142Z,4.90
2023-01-10T18:33:42.987Z,5.10
2023-01-10T18:36:24.521Z,5.97
2023-01-10T18:39:11.216Z,5.35
2023-01-10T18:41:51.205Z,4.78
2023-01-10T18:44:38.003Z,5.55
2023-01-10T18:47:18.106Z,6.15
2023-01-10T18:50:04.967Z,5.03
2023-01-10T18:52:45.092Z,4.88
2023-01-10T18:55:32.163Z,5.43
2023-01-10T18:58:12.275Z,5.72
2023-01-10T19:00:59.019Z,4.57
2023-01-10T19:03:39.226Z,5.60
2023-01-10T19:06:27.385Z,6.13
2023-01-10T19:09:07.160Z,5.38
2023-01-10T19:11:54.163Z,6.10
2023-01-10T19:14:34.428Z,5.50
2023-01-10T19:17:21.021Z,5.43
2023-01-10T19:20:01.039Z,5.10
2023-01-10T19:22:47.990Z,5.10
2023-01-10T19:26:01.596Z,5.13
2023-01-10T19:28:59.676Z,5.75
2023-01-10T19:32:07.013Z,5.53
2023-01-10T19:42:03.050Z,4.80
2023-01-10T19:44:50.352Z,5.28
2023-01-10T19:47:55.644Z,5.45
2023-01-10T19:50:35.131Z,5.30
2023-01-10T19:53:22.070Z,5.57
2023-01-10T19:56:09.833Z,6.65
2023-01-10T19:58:58.025Z,5.72
2023-01-10T20:16:51.425Z,6.03
2023-01-10T20:19:20.558Z,5.80
2023-01-10T20:22:09.065Z,5.18
2023-01-10T20:24:39.489Z,5.60
2023-01-10T20:27:19.114Z,5.30
2023-01-10T20:30:09.684Z,5.72
2023-01-10T20:32:43.779Z,5.85
2023-01-10T20:35:12.124Z,5.68
2023-01-10T20:37:41.496Z,5.07
2023-01-10T20:40:11.012Z,5.50
2023-01-10T20:42:49.568Z,5.47
2023-01-10T20:45:16.454Z,5.50
2023-01-10T20:47:48.954Z,5.32
2023-01-10T20:50:19.479Z,5.53
2023-01-10T20:52:46.278Z,5.90
2023-01-10T20:55:21.044Z,5.65
2023-01-10T20:58:01.067Z,5.35
2023-01-10T21:00:30.175Z,5.72
2023-01-10T21:03:03.885Z,5.20
2023-01-10T21:05:36.128Z,4.70
2023-01-10T21:08:03.448Z,4.03
2023-01-10T21:10:30.008Z,5.13
2023-01-10T21:12:56.945Z,4.25
2023-01-10T21:15:23.719Z,4.40
2023-01-10T21:17:50.492Z,4.63
2023-01-10T21:20:17.095Z,3.92
2023-01-10T21:22:44.554Z,5.15
2023-01-10T21:25:11.524Z,4.10
2023-01-10T21:27:52.056Z,3.60
2023-01-10T21:30:21.929Z,3.80
2023-01-10T21:32:54.077Z,3.53
2023-01-10T21:35:21.018Z,3.33
2023-01-10T21:37:49.652Z,2.85
2023-01-10T21:40:16.410Z,3.10
2023-01-10T21:42:44.973Z,3.10
2023-01-10T21:45:15.545Z,6.28
2023-01-10T21:47:42.423Z,3.35
2023-01-10T21:50:10.013Z,4.50
2023-01-10T21:52:37.022Z,3.15
2023-01-10T21:55:04.142Z,3.80
2023-01-10T21:57:31.034Z,3.33
2023-01-10T21:59:57.667Z,3.17
2023-01-10T22:02:27.403Z,3.20
2023-01-10T22:04:56.880Z,3.38
2023-01-10T22:07:26.432Z,3.25
2023-01-10T22:09:53.111Z,3.05
2023-01-10T22:12:20.783Z,3.50
2023-01-10T22:14:47.640Z,3.58
2023-01-10T22:17:14.814Z,3.10
2023-01-10T22:19:41.712Z,2.83
2023-01-10T22:22:08.798Z,3.28
2023-01-10T22:24:35.606Z,3.30
2023-01-10T22:27:02.630Z,2.80
2023-01-10T22:29:29.321Z,4.13
2023-01-10T22:31:56.196Z,2.88
2023-01-10T22:34:23.148Z,2.50
2023-01-10T22:36:49.765Z,3.05
2023-01-10T22:39:16.721Z,2.92
2023-01-10T22:41:43.300Z,2.83
2023-01-10T22:44:17.048Z,2.75
2023-01-10T22:46:43.707Z,3.15
2023-01-10T22:49:10.224Z,2.83
2023-01-10T22:51:37.646Z,3.50
2023-01-10T22:54:04.654Z,2.65
2023-01-10T22:56:31.455Z,2.58
2023-01-10T22:58:58.322Z,2.20
2023-01-10T23:01:25.439Z,3.10
2023-01-10T23:03:52.009Z,3.10
2023-01-10T23:06:18.896Z,2.85
2023-01-10T23:08:45.561Z,2.97
2023-01-10T23:11:14.224Z,2.17
2023-01-10T23:13:40.822Z,3.50
2023-01-10T23:16:15.677Z,2.65
2023-01-10T23:21:09.423Z,2.65
2023-01-10T23:23:36.308Z,2.92
2023-01-10T23:26:03.939Z,2.58
2023-01-10T23:28:31.598Z,2.63
2023-01-10T23:30:58.265Z,3.00
2023-01-10T23:33:25.331Z,2.63
2023-01-10T23:35:52.168Z,2.75
2023-01-10T23:38:18.829Z,2.83
2023-01-10T23:40:45.576Z,2.65
2023-01-10T23:43:12.249Z,3.28
2023-01-10T23:45:38.909Z,2.83
2023-01-10T23:48:08.415Z,2.97
2023-01-10T23:50:35.052Z,4.35
2023-01-10T23:53:01.844Z,3.28
2023-01-10T23:55:29.574Z,2.65
2023-01-10T23:57:56.769Z,3.53
